Time;durP1;ratioP1;P1;durP2;ratioP2;P2;SDS_P1;SDS_P2;PMS_P1;PMS_P2;Temp;Humidity;BMP_temperature;BMP_pressure;BME280_temperature;BME280_humidity;BME280_pressure;Samples;Min_cycle;Max_cycle;Signal;HPM_P1;HPM_P2
2021/04/19 00:01:49;;;;;;;17.33;13.07;;;9.10;99.90;;;;;;5076064;28;20173;-93
2021/04/19 00:04:15;;;;;;;20.40;13.90;;;9.00;99.90;;;;;;5074440;28;20221;-91
2021/04/19 00:06:40;;;;;;;22.27;13.23;;;8.90;99.90;;;;;;5073760;28;20176;-91
2021/04/19 00:09:06;;;;;;;22.10;15.37;;;8.90;99.90;;;;;;5074117;28;20177;-84
2021/04/19 00:11:32;;;;;;;22.57;15.30;;;8.90;99.90;;;;;;5073448;28;20229;-85
2021/04/19 00:13:58;;;;;;;24.43;15.47;;;8.90;99.90;;;;;;5073362;28;20268;-85
2021/04/19 00:16:23;;;;;;;21.67;14.93;;;8.90;99.90;;;;;;5074840;28;20451;-83
2021/04/19 00:18:49;;;;;;;22.10;16.27;;;9.00;99.90;;;;;;5073779;28;20169;-88
2021/04/19 00:21:16;;;;;;;22.43;15.60;;;9.10;99.90;;;;;;5074959;28;20188;-85
2021/04/19 00:23:41;;;;;;;22.03;15.83;;;9.10;99.90;;;;;;5074731;28;20180;-81
2021/04/19 00:26:07;;;;;;;22.63;15.93;;;9.20;99.90;;;;;;5075896;28;20420;-85
2021/04/19 00:28:33;;;;;;;21.30;15.40;;;9.20;99.90;;;;;;5073734;28;20164;-86
2021/04/19 00:30:59;;;;;;;22.00;15.83;;;9.30;99.90;;;;;;5074634;28;20200;-92
2021/04/19 00:33:25;;;;;;;21.83;15.77;;;9.30;99.90;;;;;;5075032;28;20170;-84
2021/04/19 00:35:51;;;;;;;24.50;15.30;;;9.30;99.90;;;;;;5075023;28;20427;-82
2021/04/19 00:38:17;;;;;;;26.10;16.60;;;9.40;99.90;;;;;;5076083;28;20169;-89
2021/04/19 00:40:44;;;;;;;25.77;16.20;;;9.40;99.90;;;;;;5078973;28;20173;-84
2021/04/19 00:43:10;;;;;;;25.17;16.83;;;9.40;99.90;;;;;;5085281;28;20433;-85
2021/04/19 00:45:37;;;;;;;27.13;17.67;;;9.30;99.90;;;;;;5079162;28;20774;-82
2021/04/19 00:48:06;;;;;;;26.37;15.87;;;9.30;99.90;;;;;;5081984;28;20419;-90
2021/04/19 00:50:36;;;;;;;30.80;18.00;;;9.30;99.90;;;;;;5081884;28;20451;-86
2021/04/19 00:53:03;;;;;;;24.87;17.53;;;9.30;99.90;;;;;;5084947;28;20407;-81
2021/04/19 00:55:29;;;;;;;26.17;18.00;;;9.30;99.90;;;;;;5089906;28;20411;-82
2021/04/19 00:57:55;;;;;;;28.47;19.40;;;9.30;99.90;;;;;;5086305;28;20411;-81
2021/04/19 01:00:31;;;;;;;23.13;18.57;;;9.30;99.90;;;;;;5090127;28;20419;-81
2021/04/19 01:02:57;;;;;;;29.23;19.80;;;9.30;99.90;;;;;;5090857;28;20180;-81
2021/04/19 01:05:33;;;;;;;25.20;18.93;;;9.30;99.90;;;;;;5089236;28;20457;-81
2021/04/19 01:07:59;;;;;;;27.07;17.57;;;9.30;99.90;;;;;;5092239;28;20426;-80
2021/04/19 01:10:25;;;;;;;25.77;19.20;;;9.30;99.90;;;;;;5097925;28;20878;-82
2021/04/19 01:12:51;;;;;;;25.87;19.33;;;9.30;99.90;;;;;;5098947;28;20490;-83
2021/04/19 01:15:17;;;;;;;27.27;18.03;;;9.20;99.90;;;;;;5090062;28;20434;-94
2021/04/19 01:17:44;;;;;;;27.97;17.87;;;9.20;99.90;;;;;;5088506;28;20257;-93
2021/04/19 01:20:12;;;;;;;25.97;17.20;;;9.20;99.90;;;;;;5084361;28;20462;-93
2021/04/19 01:22:38;;;;;;;29.93;19.60;;;9.10;99.90;;;;;;5084827;28;20418;-87
2021/04/19 01:25:09;;;;;;;29.17;19.50;;;9.10;99.90;;;;;;5081568;28;20435;-91
2021/04/19 01:27:35;;;;;;;26.20;18.30;;;9.00;99.90;;;;;;5085962;28;20506;-95
2021/04/19 01:30:05;;;;;;;26.30;19.80;;;9.00;99.90;;;;;;5087472;28;20462;-94
2021/04/19 01:32:31;;;;;;;30.30;19.17;;;8.90;99.90;;;;;;5085936;28;20495;-92
2021/04/19 01:34:57;;;;;;;27.00;18.60;;;;;;;;;;5088850;28;20430;-91
2021/04/19 01:37:22;;;;;;;25.40;18.57;;;8.80;99.90;;;;;;5088662;28;20640;-87
2021/04/19 01:39:48;;;;;;;29.00;20.23;;;8.80;99.90;;;;;;5083099;28;20423;-92
2021/04/19 01:42:14;;;;;;;27.40;19.97;;;8.90;99.90;;;;;;5082537;28;20205;-93
2021/04/19 01:44:39;;;;;;;32.27;18.90;;;8.90;99.90;;;;;;5080415;28;20173;-93
2021/04/19 01:47:05;;;;;;;26.80;19.87;;;9.00;99.90;;;;;;5086774;28;20172;-81
2021/04/19 01:49:31;;;;;;;26.60;20.17;;;9.00;99.90;;;;;;5094702;28;20196;-82
2021/04/19 01:51:58;;;;;;;29.57;19.07;;;9.00;99.90;;;;;;5095167;28;20404;-81
2021/04/19 01:54:23;;;;;;;25.60;19.40;;;9.00;99.90;;;;;;5090859;28;20416;-92
2021/04/19 01:56:49;;;;;;;28.20;20.10;;;9.10;99.90;;;;;;5086987;28;20415;-88
2021/04/19 01:59:15;;;;;;;27.13;19.67;;;9.10;99.90;;;;;;5085405;28;20168;-90
2021/04/19 02:01:55;;;;;;;30.47;21.23;;;9.10;99.90;;;;;;5090358;28;20177;-90
2021/04/19 02:04:46;;;;;;;28.67;20.20;;;9.10;99.90;;;;;;5090552;28;20406;-83
2021/04/19 02:07:36;;;;;;;25.37;18.03;;;9.20;99.90;;;;;;5086177;28;20410;-92
2021/04/19 02:10:12;;;;;;;25.60;19.80;;;9.20;99.90;;;;;;5077180;28;20463;-88
2021/04/19 02:12:52;;;;;;;31.33;18.83;;;9.20;99.90;;;;;;5077014;28;20448;-91
2021/04/19 02:15:34;;;;;;;28.87;19.70;;;9.20;99.90;;;;;;5076388;28;20419;-92
2021/04/19 02:18:17;;;;;;;31.20;19.30;;;9.10;99.90;;;;;;5076444;28;20399;-90
2021/04/19 02:20:49;;;;;;;25.70;18.43;;;9.10;99.90;;;;;;5076238;28;20572;-92
2021/04/19 02:23:30;;;;;;;25.00;18.13;;;9.10;99.90;;;;;;5076448;28;20459;-91
2021/04/19 02:26:21;;;;;;;23.37;18.90;;;9.10;99.90;;;;;;5075681;28;20460;-93
2021/04/19 02:29:10;;;;;;;30.60;19.33;;;9.10;99.90;;;;;;5076916;28;20407;-93
2021/04/19 02:31:48;;;;;;;23.73;19.50;;;9.00;99.90;;;;;;5076255;28;20819;-92
2021/04/19 02:34:16;;;;;;;24.87;19.00;;;9.00;99.90;;;;;;5077171;28;20509;-91
2021/04/19 02:36:49;;;;;;;27.97;20.47;;;9.00;99.90;;;;;;5077112;28;20768;-92
2021/04/19 02:39:16;;;;;;;28.03;19.77;;;8.80;99.90;;;;;;5077661;28;20418;-84
2021/04/19 02:41:45;;;;;;;30.77;18.80;;;8.70;99.90;;;;;;5074136;28;20423;-82
2021/04/19 02:44:11;;;;;;;28.07;19.53;;;8.70;99.90;;;;;;5074043;28;20771;-81
2021/04/19 02:46:38;;;;;;;27.60;20.23;;;;;;;;;;5073974;28;20903;-81
2021/04/19 02:49:06;;;;;;;28.10;20.60;;;8.60;99.90;;;;;;5073334;28;20415;-82
2021/04/19 02:51:33;;;;;;;27.90;17.90;;;8.50;99.90;;;;;;5073886;28;20419;-83
2021/04/19 02:54:00;;;;;;;26.83;18.90;;;;;;;;;;5073830;28;20411;-82
2021/04/19 02:56:29;;;;;;;27.80;18.30;;;8.40;99.90;;;;;;5072452;28;20446;-82
2021/04/19 02:58:58;;;;;;;26.43;19.40;;;8.30;99.90;;;;;;5073972;28;20411;-86
2021/04/19 03:01:29;;;;;;;26.17;20.87;;;8.50;99.90;;;;;;5074529;28;20476;-80
2021/04/19 03:03:59;;;;;;;27.10;20.40;;;8.50;99.90;;;;;;5073052;28;20407;-81
2021/04/19 03:06:29;;;;;;;28.03;21.20;;;8.60;99.90;;;;;;5073769;28;20503;-83
2021/04/19 03:08:57;;;;;;;33.33;20.83;;;8.70;99.90;;;;;;5073682;28;20418;-83
2021/04/19 03:11:45;;;;;;;30.03;21.73;;;8.70;99.90;;;;;;5073459;28;20443;-82
2021/04/19 03:14:13;;;;;;;32.00;20.17;;;8.70;99.90;;;;;;5073771;28;20461;-84
2021/04/19 03:16:46;;;;;;;27.83;20.30;;;8.80;99.90;;;;;;5073601;28;20415;-82
2021/04/19 03:19:14;;;;;;;35.43;22.77;;;8.80;99.90;;;;;;5071824;28;20462;-82
2021/04/19 03:21:41;;;;;;;27.27;20.13;;;8.80;99.90;;;;;;5074183;28;20472;-82
2021/04/19 03:24:08;;;;;;;28.80;21.20;;;8.80;99.90;;;;;;5073846;28;20411;-82
2021/04/19 03:26:36;;;;;;;31.50;22.57;;;8.80;99.90;;;;;;5073710;28;20750;-82
2021/04/19 03:29:02;;;;;;;33.90;21.40;;;8.80;99.90;;;;;;5073298;28;20492;-85
2021/04/19 03:31:42;;;;;;;29.50;20.73;;;8.70;99.90;;;;;;5073320;28;20419;-81
2021/04/19 03:34:19;;;;;;;30.53;21.27;;;8.80;99.90;;;;;;5073809;28;20395;-82
2021/04/19 03:36:50;;;;;;;33.90;20.93;;;8.70;99.90;;;;;;5076055;28;20409;-81
2021/04/19 03:39:18;;;;;;;30.17;20.70;;;8.70;99.90;;;;;;5075874;28;20426;-81
2021/04/19 03:41:48;;;;;;;30.30;21.37;;;8.60;99.90;;;;;;5076658;28;20896;-83
2021/04/19 03:44:17;;;;;;;32.47;20.47;;;8.50;99.90;;;;;;5077780;28;20475;-80
2021/04/19 03:46:43;;;;;;;28.57;19.80;;;8.40;99.90;;;;;;5076829;28;20414;-81
2021/04/19 03:49:17;;;;;;;31.37;20.37;;;8.40;99.90;;;;;;5076207;28;20431;-81
2021/04/19 03:51:45;;;;;;;30.43;21.50;;;8.40;99.90;;;;;;5076455;28;20414;-83
2021/04/19 03:54:13;;;;;;;30.20;21.50;;;8.50;99.90;;;;;;5076960;28;20417;-82
2021/04/19 03:56:41;;;;;;;32.73;22.70;;;8.50;99.90;;;;;;5072704;28;20498;-82
2021/04/19 03:59:11;;;;;;;23.93;20.10;;;8.50;99.90;;;;;;5073000;28;20442;-81
2021/04/19 04:01:39;;;;;;;31.47;21.30;;;8.50;99.90;;;;;;5073266;28;20443;-82
2021/04/19 04:04:06;;;;;;;28.83;21.03;;;8.60;99.90;;;;;;5073070;28;20502;-81
2021/04/19 04:06:32;;;;;;;25.33;19.20;;;8.60;99.90;;;;;;5073159;28;20469;-83
2021/04/19 04:08:58;;;;;;;31.43;20.33;;;8.60;99.90;;;;;;5072947;28;20411;-83
2021/04/19 04:11:26;;;;;;;25.00;19.47;;;8.60;99.90;;;;;;5072855;28;20423;-81
2021/04/19 04:13:51;;;;;;;29.80;21.00;;;8.70;99.90;;;;;;5072806;28;20418;-82
2021/04/19 04:16:17;;;;;;;29.53;18.33;;;8.70;99.90;;;;;;5072680;28;20419;-81
2021/04/19 04:18:43;;;;;;;25.07;19.47;;;8.80;99.90;;;;;;5072215;28;20176;-82
2021/04/19 04:21:09;;;;;;;23.30;19.00;;;8.80;99.90;;;;;;5072839;28;20177;-81
2021/04/19 04:23:36;;;;;;;25.10;19.97;;;8.70;99.90;;;;;;5073106;28;20176;-83
2021/04/19 04:26:03;;;;;;;26.73;19.23;;;8.70;99.90;;;;;;5072718;28;20403;-83
2021/04/19 04:28:28;;;;;;;27.30;19.10;;;8.70;99.90;;;;;;5073186;28;21016;-87
2021/04/19 04:30:54;;;;;;;26.53;18.30;;;8.60;99.90;;;;;;5072065;28;20475;-81
2021/04/19 04:33:19;;;;;;;27.57;19.73;;;8.60;99.90;;;;;;5072592;28;20173;-81
2021/04/19 04:35:45;;;;;;;27.80;18.50;;;8.70;99.90;;;;;;5072467;28;20257;-82
2021/04/19 04:38:11;;;;;;;31.77;20.23;;;8.70;99.90;;;;;;5074092;28;20173;-90
2021/04/19 04:40:36;;;;;;;23.27;18.63;;;8.70;99.90;;;;;;5072493;28;20513;-80
2021/04/19 04:43:13;;;;;;;25.20;16.93;;;8.70;99.90;;;;;;5072197;28;20188;-81
2021/04/19 04:45:39;;;;;;;27.70;18.80;;;8.70;99.90;;;;;;5072287;28;20169;-81
2021/04/19 04:48:18;;;;;;;27.00;18.50;;;8.70;99.90;;;;;;5071813;28;20464;-90
2021/04/19 04:50:52;;;;;;;30.57;18.07;;;8.70;99.90;;;;;;5071791;28;20524;-81
2021/04/19 04:53:25;;;;;;;27.37;19.37;;;8.70;99.90;;;;;;5073030;28;20764;-81
2021/04/19 04:55:52;;;;;;;29.03;19.73;;;8.70;99.90;;;;;;5072419;28;20408;-81
2021/04/19 04:58:19;;;;;;;28.37;19.77;;;8.70;99.90;;;;;;5072196;28;20407;-82
2021/04/19 05:00:45;;;;;;;26.50;18.77;;;8.70;99.90;;;;;;5072345;28;20412;-81
2021/04/19 05:03:14;;;;;;;27.63;18.33;;;8.60;99.90;;;;;;5071626;28;20434;-80
2021/04/19 05:05:40;;;;;;;28.50;19.23;;;8.60;99.90;;;;;;5072055;28;20769;-86
2021/04/19 05:08:10;;;;;;;22.23;18.03;;;8.50;99.90;;;;;;5071741;28;20416;-80
2021/04/19 05:10:37;;;;;;;28.37;19.53;;;8.50;99.90;;;;;;5071601;28;20470;-81
2021/04/19 05:13:18;;;;;;;24.20;17.70;;;8.50;99.90;;;;;;5071835;28;20496;-81
2021/04/19 05:15:45;;;;;;;24.17;17.80;;;8.50;99.90;;;;;;5071745;28;20956;-81
2021/04/19 05:18:12;;;;;;;22.17;17.90;;;8.50;99.90;;;;;;5071408;28;20838;-82
2021/04/19 05:20:37;;;;;;;27.27;17.80;;;8.50;99.90;;;;;;5071691;28;20511;-85
2021/04/19 05:23:03;;;;;;;27.73;17.40;;;8.60;99.90;;;;;;5071918;28;20450;-81
2021/04/19 05:25:29;;;;;;;26.20;18.60;;;8.50;99.90;;;;;;5070532;28;20183;-81
2021/04/19 05:27:55;;;;;;;24.37;15.90;;;8.50;99.90;;;;;;5075458;28;20569;-83
2021/04/19 05:30:23;;;;;;;21.77;15.70;;;8.50;99.90;;;;;;5073706;28;20681;-81
2021/04/19 05:32:48;;;;;;;21.60;16.40;;;8.60;99.90;;;;;;5074842;28;20815;-81
2021/04/19 05:35:17;;;;;;;24.90;18.30;;;8.60;99.90;;;;;;5074427;28;20415;-82
2021/04/19 05:37:45;;;;;;;20.50;15.40;;;8.70;99.90;;;;;;5062369;28;20174;-81
2021/04/19 05:40:11;;;;;;;22.10;17.10;;;8.70;99.90;;;;;;5072212;28;20427;-81
2021/04/19 05:42:37;;;;;;;20.60;15.13;;;8.70;99.90;;;;;;5065779;28;20434;-82
2021/04/19 05:45:03;;;;;;;23.10;16.47;;;8.70;99.90;;;;;;5073844;28;20423;-82
2021/04/19 05:47:29;;;;;;;21.33;16.67;;;8.70;99.90;;;;;;5063497;28;20550;-82
2021/04/19 05:49:54;;;;;;;24.37;17.90;;;8.70;99.90;;;;;;5056225;28;20470;-82
2021/04/19 05:52:20;;;;;;;22.80;16.70;;;8.80;99.90;;;;;;5064852;28;20642;-84
2021/04/19 05:54:47;;;;;;;21.60;16.10;;;8.80;99.90;;;;;;5072370;28;20169;-81
2021/04/19 05:57:50;;;;;;;26.03;17.67;;;8.90;99.90;;;;;;5065754;28;20197;-81
2021/04/19 06:00:42;;;;;;;19.87;14.90;;;9.00;99.90;;;;;;5015400;28;20539;-82
2021/04/19 06:03:08;;;;;;;20.27;15.80;;;9.00;99.90;;;;;;5060274;28;20943;-83
2021/04/19 06:06:06;;;;;;;20.80;15.47;;;9.10;99.90;;;;;;5071038;28;20423;-83
2021/04/19 06:09:06;;;;;;;20.20;13.90;;;9.10;99.90;;;;;;5071966;28;20416;-85
2021/04/19 06:12:00;;;;;;;21.10;16.37;;;9.10;99.90;;;;;;5043619;28;20448;-81
2021/04/19 06:14:29;;;;;;;22.07;16.90;;;9.10;99.90;;;;;;5058337;28;20428;-81
2021/04/19 06:17:00;;;;;;;18.30;14.57;;;9.20;99.90;;;;;;5059348;28;20782;-81
2021/04/19 06:19:26;;;;;;;17.07;15.03;;;9.20;99.90;;;;;;5058090;28;20528;-81
2021/04/19 06:21:52;;;;;;;18.50;14.10;;;9.20;99.90;;;;;;5065653;28;20502;-82
2021/04/19 06:24:18;;;;;;;24.67;15.33;;;9.30;99.90;;;;;;5075085;28;20497;-82
2021/04/19 06:26:44;;;;;;;21.97;15.37;;;9.30;99.90;;;;;;5074638;28;20446;-83
2021/04/19 06:29:11;;;;;;;17.40;14.50;;;9.30;99.90;;;;;;5075095;28;20166;-82
2021/04/19 06:31:44;;;;;;;18.77;14.50;;;9.20;99.90;;;;;;5074326;28;20177;-83
2021/04/19 06:34:11;;;;;;;20.07;16.20;;;9.30;99.90;;;;;;5074174;28;20476;-82
2021/04/19 06:36:41;;;;;;;19.63;15.60;;;9.30;99.90;;;;;;5055588;28;20474;-82
2021/04/19 06:39:11;;;;;;;17.20;14.93;;;9.40;99.90;;;;;;5054465;28;20458;-82
2021/04/19 06:41:37;;;;;;;18.57;14.23;;;9.40;99.90;;;;;;5054665;28;20415;-84
2021/04/19 06:44:03;;;;;;;20.13;14.53;;;9.50;99.90;;;;;;5054104;28;20396;-83
2021/04/19 06:46:38;;;;;;;19.23;15.40;;;9.40;99.90;;;;;;5053979;28;20408;-83
2021/04/19 06:49:04;;;;;;;15.97;13.80;;;9.40;99.90;;;;;;5053643;28;20473;-83
2021/04/19 06:51:31;;;;;;;16.17;13.50;;;9.40;99.90;;;;;;5054435;28;20424;-81
2021/04/19 06:53:58;;;;;;;19.30;14.40;;;9.40;99.90;;;;;;5053941;28;20415;-81
2021/04/19 06:56:26;;;;;;;18.20;14.17;;;9.40;99.90;;;;;;5054424;28;20428;-81
2021/04/19 06:58:54;;;;;;;21.67;12.73;;;9.40;99.90;;;;;;5054358;28;20781;-82
2021/04/19 07:01:21;;;;;;;18.60;14.37;;;9.50;99.90;;;;;;5053786;28;20412;-81
2021/04/19 07:03:56;;;;;;;18.57;13.73;;;9.60;99.90;;;;;;5054256;28;20447;-84
2021/04/19 07:06:26;;;;;;;15.10;12.90;;;9.80;99.90;;;;;;5062274;28;20995;-82
2021/04/19 07:09:14;;;;;;;14.90;12.23;;;9.90;99.90;;;;;;5074172;28;20779;-86
2021/04/19 07:11:43;;;;;;;18.30;14.87;;;10.00;99.90;;;;;;5075855;28;20589;-84
2021/04/19 07:14:09;;;;;;;15.67;12.27;;;10.20;99.90;;;;;;5081468;28;20934;-81
2021/04/19 07:16:35;;;;;;;17.63;13.47;;;10.30;99.90;;;;;;5078678;28;20448;-82
2021/04/19 07:19:01;;;;;;;17.83;13.30;;;10.30;99.90;;;;;;5076546;28;20438;-85
2021/04/19 07:21:27;;;;;;;18.43;13.37;;;10.30;99.90;;;;;;5076603;28;20416;-86
2021/04/19 07:23:54;;;;;;;15.60;13.07;;;10.40;99.90;;;;;;5072241;28;20473;-85
2021/04/19 07:26:19;;;;;;;22.83;12.60;;;10.40;99.90;;;;;;5074435;28;20209;-84
2021/04/19 07:28:45;;;;;;;18.53;13.87;;;10.40;99.90;;;;;;5074213;28;20471;-85
2021/04/19 07:31:11;;;;;;;16.93;12.77;;;10.50;99.90;;;;;;5068951;28;20292;-86
2021/04/19 07:33:38;;;;;;;16.10;12.63;;;10.60;99.90;;;;;;5072901;28;20239;-88
2021/04/19 07:36:27;;;;;;;14.20;12.30;;;10.60;99.90;;;;;;5073227;28;20185;-88
2021/04/19 07:38:55;;;;;;;14.37;12.20;;;10.60;99.90;;;;;;5075447;28;20412;-87
2021/04/19 07:41:21;;;;;;;16.30;12.50;;;10.70;99.90;;;;;;5070778;28;20924;-88
2021/04/19 07:43:48;;;;;;;16.50;12.30;;;10.80;99.90;;;;;;5070463;28;20430;-89
2021/04/19 07:46:18;;;;;;;17.27;11.90;;;10.90;99.90;;;;;;5071622;28;20446;-87
2021/04/19 07:48:51;;;;;;;16.00;12.00;;;10.90;99.90;;;;;;5071444;28;20428;-89
2021/04/19 07:51:31;;;;;;;14.50;12.40;;;11.00;99.90;;;;;;5074219;28;20481;-88
2021/04/19 07:54:33;;;;;;;14.23;12.60;;;11.00;99.90;;;;;;5073402;28;20403;-87
2021/04/19 07:56:59;;;;;;;15.10;12.57;;;11.10;99.90;;;;;;5068630;28;20518;-87
2021/04/19 07:59:33;;;;;;;16.90;13.90;;;11.20;99.90;;;;;;5070771;28;20494;-86
2021/04/19 08:02:00;;;;;;;16.50;12.13;;;11.20;99.90;;;;;;5071307;28;20245;-88
2021/04/19 08:04:27;;;;;;;16.40;13.07;;;11.30;99.90;;;;;;5072695;28;20469;-87
2021/04/19 08:06:53;;;;;;;18.67;12.60;;;11.40;99.90;;;;;;5074699;28;20416;-87
2021/04/19 08:09:29;;;;;;;13.90;10.73;;;11.50;99.90;;;;;;5077966;28;20396;-87
2021/04/19 08:11:58;;;;;;;13.80;11.07;;;11.40;99.90;;;;;;5075069;28;20170;-87
2021/04/19 08:14:28;;;;;;;13.83;10.60;;;11.40;99.90;;;;;;5073905;28;20400;-88
2021/04/19 08:17:12;;;;;;;12.30;9.70;;;11.40;99.90;;;;;;5074192;28;20431;-88
2021/04/19 08:19:40;;;;;;;13.20;10.00;;;11.50;99.90;;;;;;5072703;28;20448;-87
2021/04/19 08:22:18;;;;;;;13.13;11.27;;;11.70;99.90;;;;;;5075727;28;20405;-88
2021/04/19 08:24:45;;;;;;;12.43;9.70;;;11.90;99.90;;;;;;5072226;28;20435;-88
2021/04/19 08:27:19;;;;;;;15.97;12.13;;;12.10;99.90;;;;;;5072847;28;20458;-89
2021/04/19 08:29:46;;;;;;;14.30;11.60;;;12.10;99.90;;;;;;5074665;28;20459;-88
2021/04/19 08:32:14;;;;;;;13.00;10.90;;;12.20;99.90;;;;;;5072684;28;20495;-88
2021/04/19 08:34:41;;;;;;;13.90;11.20;;;12.30;99.90;;;;;;5073239;28;20412;-86
2021/04/19 08:37:09;;;;;;;18.40;11.70;;;12.30;99.90;;;;;;5053715;28;20473;-87
2021/04/19 08:39:37;;;;;;;12.70;11.40;;;12.40;99.90;;;;;;5053763;28;20411;-87
2021/04/19 08:42:03;;;;;;;14.63;12.80;;;12.40;99.90;;;;;;5070864;28;20409;-87
2021/04/19 08:44:35;;;;;;;13.07;10.83;;;12.40;99.90;;;;;;5072044;28;20421;-87
2021/04/19 08:47:03;;;;;;;15.30;12.20;;;12.50;99.90;;;;;;5080491;28;20413;-87
2021/04/19 08:49:30;;;;;;;14.10;11.87;;;12.50;99.90;;;;;;5094188;28;20468;-86
2021/04/19 08:51:56;;;;;;;14.63;11.17;;;12.60;99.90;;;;;;5092161;28;20418;-87
2021/04/19 08:54:22;;;;;;;15.30;12.87;;;12.80;99.90;;;;;;5092262;28;20445;-88
2021/04/19 08:56:48;;;;;;;13.97;11.03;;;13.00;99.90;;;;;;5073719;28;20172;-91
2021/04/19 08:59:14;;;;;;;14.10;12.13;;;13.40;99.90;;;;;;5073662;28;20418;-93
2021/04/19 09:01:43;;;;;;;13.77;12.30;;;;;;;;;;5073518;28;20416;-93
2021/04/19 09:04:09;;;;;;;12.13;10.70;;;14.00;99.90;;;;;;5077950;28;20459;-92
2021/04/19 09:06:47;;;;;;;13.50;10.60;;;14.40;99.90;;;;;;5077037;28;20413;-92
2021/04/19 09:09:42;;;;;;;13.13;11.53;;;14.60;99.90;;;;;;5077606;28;20452;-85
2021/04/19 09:12:10;;;;;;;15.90;12.90;;;14.90;99.90;;;;;;5076704;28;20405;-79
2021/04/19 09:14:39;;;;;;;19.27;11.40;;;15.80;99.90;;;;;;5076531;28;20425;-79
2021/04/19 09:17:05;;;;;;;15.20;12.70;;;16.20;99.90;;;;;;5077245;28;20403;-77
2021/04/19 09:19:31;;;;;;;14.27;11.47;;;;;;;;;;5078999;28;20455;-91
2021/04/19 09:22:12;;;;;;;17.20;12.40;;;17.10;99.90;;;;;;5078818;28;20441;-87
2021/04/19 09:25:03;;;;;;;14.50;12.77;;;17.80;99.90;;;;;;5077342;28;20413;-88
2021/04/19 09:27:54;;;;;;;14.07;12.67;;;17.90;99.90;;;;;;5078006;28;20488;-90
2021/04/19 09:30:43;;;;;;;16.33;13.13;;;17.90;99.90;;;;;;5077921;28;20470;-91
2021/04/19 09:33:08;;;;;;;12.97;11.67;;;18.20;99.90;;;;;;5077681;28;20492;-87
2021/04/19 09:38:07;;;;;;;13.10;10.97;;;19.30;99.30;;;;;;5076949;28;20177;-89
2021/04/19 09:40:56;;;;;;;12.00;10.63;;;20.30;98.30;;;;;;5077966;28;20499;-87
2021/04/19 09:43:46;;;;;;;12.17;11.03;;;22.30;93.70;;;;;;5076648;28;20420;-86
2021/04/19 09:49:35;;;;;;;11.70;10.60;;;23.40;78.70;;;;;;5076807;28;20508;-87
2021/04/19 09:52:08;;;;;;;10.97;9.87;;;23.00;78.60;;;;;;5076751;28;20425;-88
2021/04/19 09:54:34;;;;;;;11.70;10.50;;;22.90;81.10;;;;;;5077208;28;20450;-86
2021/04/19 09:57:00;;;;;;;11.50;10.40;;;23.10;77.60;;;;;;5079299;28;20427;-90
2021/04/19 09:59:30;;;;;;;10.07;9.17;;;23.90;99.90;;;;;;5079654;28;20421;-87
2021/04/19 10:01:58;;;;;;;11.93;10.23;;;25.40;87.70;;;;;;5079784;28;20169;-88
2021/04/19 10:04:24;;;;;;;13.07;11.97;;;26.90;46.90;;;;;;5077443;28;20428;-91
2021/04/19 10:06:57;;;;;;;11.20;10.10;;;;;;;;;;5079691;28;20401;-89
2021/04/19 10:09:29;;;;;;;12.03;11.00;;;28.30;6.30;;;;;;5078913;28;20873;-89
2021/04/19 10:11:59;;;;;;;10.13;9.13;;;29.60;8.90;;;;;;5078754;28;20890;-89
2021/04/19 10:14:26;;;;;;;10.20;9.30;;;;;;;;;;5079149;28;20498;-90
2021/04/19 10:16:57;;;;;;;12.27;11.20;;;31.70;1.00;;;;;;5079828;28;20925;-90
2021/04/19 10:19:30;;;;;;;13.00;11.57;;;30.90;1.00;;;;;;5076647;28;20463;-89
2021/04/19 10:22:04;;;;;;;11.07;10.07;;;30.40;1.00;;;;;;5078194;28;20172;-88
2021/04/19 10:24:31;;;;;;;9.90;9.10;;;;;;;;;;5078217;28;20406;-87
2021/04/19 10:26:57;;;;;;;11.37;10.40;;;;;;;;;;5079280;28;20396;-90
2021/04/19 10:29:26;;;;;;;11.30;10.20;;;;;;;;;;5080599;28;20836;-88
2021/04/19 10:31:58;;;;;;;9.30;8.60;;;33.70;1.00;;;;;;5086697;28;20422;-89
2021/04/19 10:34:30;;;;;;;10.93;10.03;;;34.10;1.00;;;;;;5088160;28;20434;-87
2021/04/19 10:37:01;;;;;;;11.47;10.53;;;34.10;1.00;;;;;;5087806;28;20813;-88
2021/04/19 10:39:33;;;;;;;11.13;10.23;;;34.80;1.00;;;;;;5086989;28;20450;-92
2021/04/19 10:42:04;;;;;;;11.60;10.70;;;35.50;99.90;;;;;;5083980;28;20609;-93
2021/04/19 10:44:39;;;;;;;10.03;9.23;;;;;;;;;;5080594;28;20460;-91
2021/04/19 10:47:11;;;;;;;10.67;9.67;;;36.30;1.00;;;;;;5086745;28;20422;-91
2021/04/19 10:49:38;;;;;;;10.33;9.47;;;35.30;1.00;;;;;;5080659;28;20451;-93
2021/04/19 10:52:06;;;;;;;10.37;9.43;;;35.10;1.00;;;;;;5077211;28;20423;-90
2021/04/19 10:54:33;;;;;;;11.10;10.20;;;;;;;;;;5079622;28;20487;-92
2021/04/19 10:57:01;;;;;;;9.70;8.90;;;35.20;1.00;;;;;;5085202;28;20833;-91
2021/04/19 10:59:27;;;;;;;10.23;9.40;;;35.10;74.70;;;;;;5080760;28;20423;-90
2021/04/19 11:02:03;;;;;;;10.33;9.33;;;;;;;;;;5079760;28;20449;-89
2021/04/19 11:04:32;;;;;;;9.77;8.83;;;35.40;1.00;;;;;;5080515;28;20403;-88
2021/04/19 11:07:16;;;;;;;9.83;8.93;;;;;;;;;;5083770;28;20512;-86
2021/04/19 11:09:44;;;;;;;9.60;8.80;;;;;;;;;;5088087;28;20588;-86
2021/04/19 11:12:13;;;;;;;9.57;8.87;;;;;;;;;;5080154;28;20424;-86
2021/04/19 11:14:40;;;;;;;10.47;9.57;;;;;;;;;;5089638;28;20422;-87
2021/04/19 11:17:07;;;;;;;9.47;8.77;;;;;;;;;;5080238;28;20898;-87
2021/04/19 11:19:40;;;;;;;11.00;9.90;;;;;;;;;;5077764;28;20447;-89
2021/04/19 11:22:21;;;;;;;9.63;8.73;;;;;;;;;;5077365;28;20510;-86
2021/04/19 11:24:48;;;;;;;10.20;9.40;;;;;;;;;;5073988;28;20774;-85
2021/04/19 11:27:14;;;;;;;10.37;9.47;;;;;;;;;;5074342;28;20469;-85
2021/04/19 11:29:42;;;;;;;11.57;10.60;;;36.20;1.00;;;;;;5072645;28;20463;-86
2021/04/19 11:32:25;;;;;;;9.57;8.80;;;35.90;1.00;;;;;;5074068;28;20465;-85
2021/04/19 11:34:53;;;;;;;9.43;8.73;;;35.80;1.00;;;;;;5074289;28;20909;-86
2021/04/19 11:37:34;;;;;;;10.30;9.50;;;36.30;1.00;;;;;;5074168;28;20458;-84
2021/04/19 11:40:00;;;;;;;9.90;9.07;;;;;;;;;;5074075;28;20419;-85
2021/04/19 11:42:31;;;;;;;8.90;8.10;;;36.30;1.00;;;;;;5073212;28;20417;-85
2021/04/19 11:44:57;;;;;;;8.27;7.57;;;36.20;1.00;;;;;;5074010;28;20411;-85
2021/04/19 11:47:22;;;;;;;7.22;6.53;;;35.70;1.00;;;;;;5072686;28;20413;-86
2021/04/19 11:49:50;;;;;;;8.23;7.53;;;;;;;;;;5073785;28;20195;-85
2021/04/19 11:52:16;;;;;;;9.00;8.20;;;36.50;1.00;;;;;;5073779;28;20169;-84
2021/04/19 11:54:41;;;;;;;7.67;6.97;;;37.10;1.00;;;;;;5073780;28;20933;-84
2021/04/19 11:57:07;;;;;;;7.90;6.80;;;37.50;1.00;;;;;;5074482;28;20173;-87
2021/04/19 11:59:33;;;;;;;7.20;6.70;;;37.30;1.00;;;;;;5073942;28;20165;-85
2021/04/19 12:02:01;;;;;;;9.10;8.40;;;37.20;1.00;;;;;;5074411;28;20188;-86
2021/04/19 12:04:27;;;;;;;6.47;5.97;;;36.70;1.00;;;;;;5074223;28;20169;-91
2021/04/19 12:06:52;;;;;;;6.57;6.00;;;36.90;1.00;;;;;;5074101;28;20414;-89
2021/04/19 12:09:18;;;;;;;7.00;6.30;;;37.30;1.00;;;;;;5076175;28;20597;-91
2021/04/19 12:11:43;;;;;;;6.57;6.07;;;37.00;1.00;;;;;;5076068;28;20181;-94
2021/04/19 12:14:10;;;;;;;5.27;4.87;;;37.00;1.00;;;;;;5075775;28;20222;-91
2021/04/19 12:16:36;;;;;;;6.20;5.70;;;37.30;1.00;;;;;;5076780;28;20479;-91
2021/04/19 12:19:03;;;;;;;6.13;5.53;;;37.40;1.00;;;;;;5081441;28;20224;-90
2021/04/19 12:21:29;;;;;;;4.77;4.37;;;37.70;1.00;;;;;;5078108;28;20423;-91
2021/04/19 12:23:57;;;;;;;5.07;4.67;;;37.70;1.00;;;;;;5078628;28;20403;-91
2021/04/19 12:26:23;;;;;;;6.50;5.90;;;36.80;1.00;;;;;;5075566;28;20648;-91
2021/04/19 12:28:48;;;;;;;4.47;4.10;;;36.60;1.00;;;;;;5076447;28;20418;-88
2021/04/19 12:31:14;;;;;;;5.23;4.73;;;36.80;1.00;;;;;;5081956;28;20200;-89
2021/04/19 12:33:40;;;;;;;4.63;4.23;;;37.10;1.00;;;;;;5077278;28;20308;-89
2021/04/19 12:36:06;;;;;;;5.80;5.33;;;37.30;1.00;;;;;;5078870;28;20628;-88
2021/04/19 12:38:32;;;;;;;5.77;5.27;;;37.50;1.00;;;;;;5078794;28;20604;-88
2021/04/19 12:40:58;;;;;;;6.73;6.17;;;36.90;1.00;;;;;;5078151;28;20410;-88
2021/04/19 12:43:23;;;;;;;5.37;4.97;;;36.50;1.00;;;;;;5078099;28;20230;-88
2021/04/19 12:45:49;;;;;;;5.77;5.17;;;36.50;1.00;;;;;;5078435;28;20503;-87
2021/04/19 12:48:14;;;;;;;6.20;5.70;;;36.50;1.00;;;;;;5078069;28;20691;-90
2021/04/19 12:50:41;;;;;;;5.63;5.13;;;37.00;1.00;;;;;;5078552;28;20215;-87
2021/04/19 12:53:07;;;;;;;5.60;5.10;;;36.40;1.00;;;;;;5079146;28;20200;-88
2021/04/19 12:55:34;;;;;;;5.43;4.93;;;35.90;1.00;;;;;;5078190;28;20477;-87
2021/04/19 12:58:00;;;;;;;5.97;5.47;;;35.90;1.00;;;;;;5077530;28;20484;-88
2021/04/19 13:00:27;;;;;;;4.87;4.37;;;36.10;1.00;;;;;;5078052;28;20465;-89
2021/04/19 13:02:54;;;;;;;6.40;5.67;;;36.40;1.00;;;;;;5082063;28;20435;-89
2021/04/19 13:05:19;;;;;;;5.30;5.00;;;37.00;1.00;;;;;;5084042;28;20438;-87